Overview Statistics Trail Chart Weather Telemetry Raw packets
 

This is the latest recevied weather packets stored in our database for station/object E24BD-10. If no packets are shown the sender has not sent any weather packets the latest 10 day(s).

<< 4 5 6 7 8 9 10 >>
Time Temp. Humidity Pressure Rain* Wind** Luminosity Snow
1777637516 36.67° C 48% 997 hPa - - 0 W/m² -
1777636592 37.78° C 45% 997 hPa - - 0 W/m² -
1777635667 36.67° C 47% 997 hPa - - 0 W/m² -
1777634743 37.22° C 46% 996 hPa - - 0 W/m² -
1777633818 37.22° C 44% 996 hPa - - 0 W/m² -
1777632894 37.78° C 44% 996 hPa - - 0 W/m² -
1777631969 37.78° C 42% 996 hPa - - 0 W/m² -
1777631045 37.78° C 41% 996 hPa - - 0 W/m² -
1777630120 38.33° C 41% 996 hPa - - 0 W/m² -
1777629196 38.33° C 41% 996 hPa - - 0 W/m² -
1777628271 38.89° C 40% 995 hPa - - 0 W/m² -
1777627346 38.89° C 40% 996 hPa - - 0 W/m² -
1777626421 38.89° C 41% 995 hPa - - 0 W/m² -
1777625497 38.89° C 42% 996 hPa - - 0 W/m² -
1777624572 38.89° C 43% 996 hPa - - 0 W/m² -
1777623648 40° C 41% 996 hPa - - 0 W/m² -
1777622724 40° C 41% 996 hPa - - 0 W/m² -
1777621799 40° C 41% 996 hPa - - 0 W/m² -
1777620875 39.44° C 42% 997 hPa - - 0 W/m² -
1777619951 39.44° C 43% 997 hPa - - 0 W/m² -
1777619026 39.44° C 43% 997 hPa - - 0 W/m² -
1777618102 38.89° C 44% 997 hPa - - 0 W/m² -
1777617177 38.89° C 44% 998 hPa - - 0 W/m² -
1777616253 38.89° C 45% 998 hPa - - 0 W/m² -
1777615329 38.33° C 46% 998 hPa - - 0 W/m² -

* Rain since midnight (hover to see other rain measurements)
** Current wind speed in m/s (hover to see current wind gust speed)